Devine, Texas
Current Conditions -  °F | °C
As of 6:35 PM on Saturday 25 Oct 2014 (Local Time) from KCVB Reporting Station
Clear Clear  
Wind Chill: 85°   Ceiling: Unl
Heat Index: 85°   Visibility: 10mi
Dew Point: 49°   Wind: 7mph
Humidity: 28%   Direction: 150°SSE
Pressure: 30.09"   Gusts: NA
Location:  29.14°N, 98.91°W
Report Text: KCVB 252335Z AUTO 15006KT 10SM CLR 30/09 A3009 RMK AO2 T02960092
Loading
Personal Weather Stations






























Interactive Weather Map New forecast layout! Learn more

10-Day Weather Forecast

Advertisements
Track Severe Weather on mobile